Terminal Aerodrome Forecast
Issued by NWS

Home | Current Version | Previous Version | Text Only | Print | Product List | Glossary On
Versions: 1 2 3 4 5 6 7 8 9 10 11 12 13 14 15 16 17 18 19 20 21 22 23 24 25
227
FTUS43 KDLH 071145
TAFHYR
TAF
KHYR 071145Z 0712/0812 21012KT P6SM VCSH SCT012 OVC040
      TEMPO 0712/0714 -SNDZ BKN012
     FM071400 24012G18KT 4SM -DZSN BKN015 OVC035
     FM071800 26012G20KT 2SM -SN BLSN OVC012
     FM080000 29013G24KT 2SM -SN BLSN OVC010
     FM080400 31014G25KT 4SM -SN BLSN OVC018=

USA.gov is the U.S. government's official web portal to all federal, state and local government web resources and services.